Angle, Utah
Current Conditions -  °F | °C
As of 12:53 PM on Sunday 21 Dec 2014 (Local Time) from KBCE Reporting Station
Clear Clear  
Wind Chill: 40°   Ceiling: Unl
Heat Index: 47°   Visibility: 10mi
Dew Point: 31°   Wind: 17mph
Humidity: 54%   Direction: 350°N
Pressure: 30.06"   Gusts: 23mph
Location:  37.9601°N, 112.141°W
Report Text: KBCE 211953Z AUTO 35015G20KT 10SM CLR 08/M01 A3006 RMK AO2 SLP141 T00831006
Loading
Personal Weather Stations






























Interactive Weather Map New forecast layout! Learn more

10-Day Weather Forecast

Advertisements
Track Severe Weather on mobile